Aviation Digital Data Service (ADDS)

Output produced by METARs form (1738 UTC 16 October 2021)
found at http://www.aviationweather.gov/metar/data/
 
METAR text: RJOB 161200Z 35005KT 270V050 7000 -SHRA FEW008 SCT015 BKN035 16/15 Q1014
Conditions at: RJOB (OKAYAMA AIRPORT , JP) observed 1200 UTC 16 October 2021
Temperature: 16.0°C (61°F)
Dewpoint: 15.0°C (59°F) [RH = 94%]
Pressure (altimeter): 29.94 inches Hg (1014.0 mb)
Winds: from the N (350 degrees) at 6 MPH (5 knots; 2.6 m/s)
Visibility: 4 miles ( 7 km)
Ceiling: 3500 feet AGL
Clouds: few clouds at 800 feet AGL
scattered clouds at 1500 feet AGL
broken clouds at 3500 feet AGL
Weather: -SHRA  (light rain showers)

METAR text: RJOB 161100Z 32007KT 270V020 9999 -SHRA FEW010 SCT015 BKN040 16/15 Q1014
Conditions at: RJOB (OKAYAMA AIRPORT , JP) observed 1100 UTC 16 October 2021
Temperature: 16.0°C (61°F)
Dewpoint: 15.0°C (59°F) [RH = 94%]
Pressure (altimeter): 29.94 inches Hg (1014.0 mb)
Winds: from the NW (320 degrees) at 8 MPH (7 knots; 3.6 m/s)
Visibility: 6 or more miles (10+ km)
Ceiling: 4000 feet AGL
Clouds: few clouds at 1000 feet AGL
scattered clouds at 1500 feet AGL
broken clouds at 4000 feet AGL
Weather: -SHRA  (light rain showers)

METAR text: RJOB 161000Z 32006KT 270V020 9999 -SHRA FEW010 SCT030 BKN035 17/15 Q1013
Conditions at: RJOB (OKAYAMA AIRPORT , JP) observed 1000 UTC 16 October 2021
Temperature: 17.0°C (63°F)
Dewpoint: 15.0°C (59°F) [RH = 88%]
Pressure (altimeter): 29.91 inches Hg (1013.0 mb)
Winds: from the NW (320 degrees) at 7 MPH (6 knots; 3.1 m/s)
Visibility: 6 or more miles (10+ km)
Ceiling: 3500 feet AGL
Clouds: few clouds at 1000 feet AGL
scattered clouds at 3000 feet AGL
broken clouds at 3500 feet AGL
Weather: -SHRA  (light rain showers)

METAR text: RJOB 160900Z 33005KT 280V030 9999 FEW006 SCT030 BKN035 18/17 Q1012
Conditions at: RJOB (OKAYAMA AIRPORT , JP) observed 0900 UTC 16 October 2021
Temperature: 18.0°C (64°F)
Dewpoint: 17.0°C (63°F) [RH = 94%]
Pressure (altimeter): 29.88 inches Hg (1012.0 mb)
Winds: from the NNW (330 degrees) at 6 MPH (5 knots; 2.6 m/s)
Visibility: 6 or more miles (10+ km)
Ceiling: 3500 feet AGL
Clouds: few clouds at 600 feet AGL
scattered clouds at 3000 feet AGL
broken clouds at 3500 feet AGL
Weather: no significant weather observed at this time

METAR text: RJOB 160838Z 32007KT 280V350 6000 SHRA FEW006 SCT008 FEW020CB BKN025 18/17 Q1012 RMK 1ST006 3ST008 2CB020 6CU025 A2990 CB 5KM E MOV NE
Conditions at: RJOB (OKAYAMA AIRPORT , JP) observed 0838 UTC 16 October 2021
Temperature: 18.0°C (64°F)
Dewpoint: 17.0°C (63°F) [RH = 94%]
Pressure (altimeter): 29.88 inches Hg (1012.0 mb)
Winds: from the NW (320 degrees) at 8 MPH (7 knots; 3.6 m/s)
Visibility: 4 miles ( 6 km)
Ceiling: 2500 feet AGL
Clouds: few clouds at 600 feet AGL
scattered clouds at 800 feet AGL
few clouds at 2000 feet AGL
broken clouds at 2500 feet AGL
Weather: SHRA  (rain showers)

METAR text: RJOB 160822Z 29010KT 260V330 2000 +SHRA BR FEW010 SCT020CB BKN025 19/17 Q1012 RMK 1CU010 3CB020 7CU025 A2990 CB OHD MOV NE RI++
Conditions at: RJOB (OKAYAMA AIRPORT , JP) observed 0822 UTC 16 October 2021
Temperature: 19.0°C (66°F)
Dewpoint: 17.0°C (63°F) [RH = 88%]
Pressure (altimeter): 29.88 inches Hg (1012.0 mb)
Winds: from the WNW (290 degrees) at 12 MPH (10 knots; 5.1 m/s)
Visibility: 1.24 miles (2.00 km)
Ceiling: 2500 feet AGL
Clouds: few clouds at 1000 feet AGL
scattered clouds at 2000 feet AGL
broken clouds at 2500 feet AGL
Weather: +SHRA BR  (heavy rain showers, mist)

METAR text: RJOB 160800Z 29003KT 210V360 9999 FEW015 FEW020CB BKN025 22/19 Q1011
Conditions at: RJOB (OKAYAMA AIRPORT , JP) observed 0800 UTC 16 October 2021
Temperature: 22.0°C (72°F)
Dewpoint: 19.0°C (66°F) [RH = 83%]
Pressure (altimeter): 29.85 inches Hg (1011.0 mb)
Winds: from the WNW (290 degrees) at 3 MPH (3 knots; 1.5 m/s)
Visibility: 6 or more miles (10+ km)
Ceiling: 2500 feet AGL
Clouds: few clouds at 1500 feet AGL
few clouds at 2000 feet AGL
broken clouds at 2500 feet AGL
Weather: no significant weather observed at this time

METAR text: RJOB 160700Z 18003KT 120V220 9999 FEW020 SCT100 BKN120 23/19 Q1011
Conditions at: RJOB (OKAYAMA AIRPORT , JP) observed 0700 UTC 16 October 2021
Temperature: 23.0°C (73°F)
Dewpoint: 19.0°C (66°F) [RH = 78%]
Pressure (altimeter): 29.85 inches Hg (1011.0 mb)
Winds: from the S (180 degrees) at 3 MPH (3 knots; 1.5 m/s)
Visibility: 6 or more miles (10+ km)
Ceiling: 12000 feet AGL
Clouds: few clouds at 2000 feet AGL
scattered clouds at 10000 feet AGL
broken clouds at 12000 feet AGL
Weather: no significant weather observed at this time

METAR text: RJOB 160600Z 15003KT 090V220 9999 FEW020 SCT025 BKN060 24/19 Q1011
Conditions at: RJOB (OKAYAMA AIRPORT , JP) observed 0600 UTC 16 October 2021
Temperature: 24.0°C (75°F)
Dewpoint: 19.0°C (66°F) [RH = 74%]
Pressure (altimeter): 29.85 inches Hg (1011.0 mb)
Winds: from the SSE (150 degrees) at 3 MPH (3 knots; 1.5 m/s)
Visibility: 6 or more miles (10+ km)
Ceiling: 6000 feet AGL
Clouds: few clouds at 2000 feet AGL
scattered clouds at 2500 feet AGL
broken clouds at 6000 feet AGL
Weather: no significant weather observed at this time

METAR text: RJOB 160500Z 18005KT 140V220 9999 FEW020 SCT060 BKN140 24/19 Q1012
Conditions at: RJOB (OKAYAMA AIRPORT , JP) observed 0500 UTC 16 October 2021
Temperature: 24.0°C (75°F)
Dewpoint: 19.0°C (66°F) [RH = 74%]
Pressure (altimeter): 29.88 inches Hg (1012.0 mb)
Winds: from the S (180 degrees) at 6 MPH (5 knots; 2.6 m/s)
Visibility: 6 or more miles (10+ km)
Ceiling: 14000 feet AGL
Clouds: few clouds at 2000 feet AGL
scattered clouds at 6000 feet AGL
broken clouds at 14000 feet AGL
Weather: no significant weather observed at this time

METAR text: RJOB 160400Z 19004KT 140V260 9999 FEW015 SCT045 BKN140 23/18 Q1012
Conditions at: RJOB (OKAYAMA AIRPORT , JP) observed 0400 UTC 16 October 2021
Temperature: 23.0°C (73°F)
Dewpoint: 18.0°C (64°F) [RH = 73%]
Pressure (altimeter): 29.88 inches Hg (1012.0 mb)
Winds: from the S (190 degrees) at 5 MPH (4 knots; 2.1 m/s)
Visibility: 6 or more miles (10+ km)
Ceiling: 14000 feet AGL
Clouds: few clouds at 1500 feet AGL
scattered clouds at 4500 feet AGL
broken clouds at 14000 feet AGL
Weather: no significant weather observed at this time

METAR text: RJOB 160300Z 18004KT 130V230 9999 FEW015 SCT045 BKN170 23/18 Q1013
Conditions at: RJOB (OKAYAMA AIRPORT , JP) observed 0300 UTC 16 October 2021
Temperature: 23.0°C (73°F)
Dewpoint: 18.0°C (64°F) [RH = 73%]
Pressure (altimeter): 29.91 inches Hg (1013.0 mb)
Winds: from the S (180 degrees) at 5 MPH (4 knots; 2.1 m/s)
Visibility: 6 or more miles (10+ km)
Ceiling: 17000 feet AGL
Clouds: few clouds at 1500 feet AGL
scattered clouds at 4500 feet AGL
broken clouds at 17000 feet AGL
Weather: no significant weather observed at this time

METAR text: RJOB 160200Z VRB02KT 9999 FEW010 SCT020 BKN170 23/19 Q1014
Conditions at: RJOB (OKAYAMA AIRPORT , JP) observed 0200 UTC 16 October 2021
Temperature: 23.0°C (73°F)
Dewpoint: 19.0°C (66°F) [RH = 78%]
Pressure (altimeter): 29.94 inches Hg (1014.0 mb)
Winds: variable direction winds at 2 MPH (2 knots; 1.0 m/s)
Visibility: 6 or more miles (10+ km)
Ceiling: 17000 feet AGL
Clouds: few clouds at 1000 feet AGL
scattered clouds at 2000 feet AGL
broken clouds at 17000 feet AGL
Weather: no significant weather observed at this time

METAR text: RJOB 160100Z VRB02KT 9999 FEW010 BKN025 BKN170 21/17 Q1015
Conditions at: RJOB (OKAYAMA AIRPORT , JP) observed 0100 UTC 16 October 2021
Temperature: 21.0°C (70°F)
Dewpoint: 17.0°C (63°F) [RH = 78%]
Pressure (altimeter): 29.97 inches Hg (1015.0 mb)
Winds: variable direction winds at 2 MPH (2 knots; 1.0 m/s)
Visibility: 6 or more miles (10+ km)
Ceiling: 2500 feet AGL
Clouds: few clouds at 1000 feet AGL
broken clouds at 2500 feet AGL
broken clouds at 17000 feet AGL
Weather: no significant weather observed at this time

METAR text: RJOB 160000Z VRB02KT 9999 FEW008 SCT010 BKN180 20/17 Q1015
Conditions at: RJOB (OKAYAMA AIRPORT , JP) observed 0000 UTC 16 October 2021
Temperature: 20.0°C (68°F)
Dewpoint: 17.0°C (63°F) [RH = 83%]
Pressure (altimeter): 29.97 inches Hg (1015.0 mb)
Winds: variable direction winds at 2 MPH (2 knots; 1.0 m/s)
Visibility: 6 or more miles (10+ km)
Ceiling: 18000 feet AGL
Clouds: few clouds at 800 feet AGL
scattered clouds at 1000 feet AGL
broken clouds at 18000 feet AGL
Weather: no significant weather observed at this time

METAR text: RJOB 152300Z 11005KT 9999 PRFG FEW000 SCT040 BKN180 17/16 Q1015
Conditions at: RJOB (OKAYAMA AIRPORT , JP) observed 2300 UTC 15 October 2021
Temperature: 17.0°C (63°F)
Dewpoint: 16.0°C (61°F) [RH = 94%]
Pressure (altimeter): 29.97 inches Hg (1015.0 mb)
Winds: from the ESE (110 degrees) at 6 MPH (5 knots; 2.6 m/s)
Visibility: 6 or more miles (10+ km)
Ceiling: 18000 feet AGL
Clouds: few clouds at 0 feet AGL
scattered clouds at 4000 feet AGL
broken clouds at 18000 feet AGL
Weather: PRFG  (partial fog)

METAR text: RJOB 152200Z 02002KT 9999 PRFG FEW000 SCT035 BKN180 18/16 Q1015
Conditions at: RJOB (OKAYAMA AIRPORT , JP) observed 2200 UTC 15 October 2021
Temperature: 18.0°C (64°F)
Dewpoint: 16.0°C (61°F) [RH = 88%]
Pressure (altimeter): 29.97 inches Hg (1015.0 mb)
Winds: from the NNE (20 degrees) at 2 MPH (2 knots; 1.0 m/s)
Visibility: 6 or more miles (10+ km)
Ceiling: 18000 feet AGL
Clouds: few clouds at 0 feet AGL
scattered clouds at 3500 feet AGL
broken clouds at 18000 feet AGL
Weather: PRFG  (partial fog)

METAR text: RJOB 152115Z VRB01KT 9999 PRFG FEW000 SCT030 16/15 Q1015 RMK 1ST000 3CU030 A2998 FG NE-E
Conditions at: RJOB (OKAYAMA AIRPORT , JP) observed 2115 UTC 15 October 2021
Temperature: 16.0°C (61°F)
Dewpoint: 15.0°C (59°F) [RH = 94%]
Pressure (altimeter): 29.97 inches Hg (1015.0 mb)
Winds: variable direction winds at 1 MPH (1 knots; 0.5 m/s)
Visibility: 6 or more miles (10+ km)
Ceiling: at least 12,000 feet AGL
Clouds: few clouds at 0 feet AGL
scattered clouds at 3000 feet AGL
Weather: PRFG  (partial fog)

METAR text: RJOB 151200Z VRB01KT 9999 FEW025 19/16 Q1016
Conditions at: RJOB (OKAYAMA AIRPORT , JP) observed 1200 UTC 15 October 2021
Temperature: 19.0°C (66°F)
Dewpoint: 16.0°C (61°F) [RH = 83%]
Pressure (altimeter): 30.00 inches Hg (1016.0 mb)
Winds: variable direction winds at 1 MPH (1 knots; 0.5 m/s)
Visibility: 6 or more miles (10+ km)
Ceiling: at least 12,000 feet AGL
Clouds: few clouds at 2500 feet AGL
Weather: no significant weather observed at this time

METAR text: RJOB 151100Z 34002KT 9999 FEW025 21/17 Q1016
Conditions at: RJOB (OKAYAMA AIRPORT , JP) observed 1100 UTC 15 October 2021
Temperature: 21.0°C (70°F)
Dewpoint: 17.0°C (63°F) [RH = 78%]
Pressure (altimeter): 30.00 inches Hg (1016.0 mb)
Winds: from the NNW (340 degrees) at 2 MPH (2 knots; 1.0 m/s)
Visibility: 6 or more miles (10+ km)
Ceiling: at least 12,000 feet AGL
Clouds: few clouds at 2500 feet AGL
Weather: no significant weather observed at this time

METAR text: RJOB 151000Z VRB02KT 9999 FEW025 21/16 Q1015
Conditions at: RJOB (OKAYAMA AIRPORT , JP) observed 1000 UTC 15 October 2021
Temperature: 21.0°C (70°F)
Dewpoint: 16.0°C (61°F) [RH = 73%]
Pressure (altimeter): 29.97 inches Hg (1015.0 mb)
Winds: variable direction winds at 2 MPH (2 knots; 1.0 m/s)
Visibility: 6 or more miles (10+ km)
Ceiling: at least 12,000 feet AGL
Clouds: few clouds at 2500 feet AGL
Weather: no significant weather observed at this time

METAR text: RJOB 150900Z 14003KT 9999 FEW030 22/17 Q1015
Conditions at: RJOB (OKAYAMA AIRPORT , JP) observed 0900 UTC 15 October 2021
Temperature: 22.0°C (72°F)
Dewpoint: 17.0°C (63°F) [RH = 73%]
Pressure (altimeter): 29.97 inches Hg (1015.0 mb)
Winds: from the SE (140 degrees) at 3 MPH (3 knots; 1.5 m/s)
Visibility: 6 or more miles (10+ km)
Ceiling: at least 12,000 feet AGL
Clouds: few clouds at 3000 feet AGL
Weather: no significant weather observed at this time

METAR text: RJOB 150800Z VRB02KT 9999 FEW030 24/16 Q1015
Conditions at: RJOB (OKAYAMA AIRPORT , JP) observed 0800 UTC 15 October 2021
Temperature: 24.0°C (75°F)
Dewpoint: 16.0°C (61°F) [RH = 61%]
Pressure (altimeter): 29.97 inches Hg (1015.0 mb)
Winds: variable direction winds at 2 MPH (2 knots; 1.0 m/s)
Visibility: 6 or more miles (10+ km)
Ceiling: at least 12,000 feet AGL
Clouds: few clouds at 3000 feet AGL
Weather: no significant weather observed at this time

METAR text: RJOB 150700Z VRB01KT 9999 FEW025 25/16 Q1014
Conditions at: RJOB (OKAYAMA AIRPORT , JP) observed 0700 UTC 15 October 2021
Temperature: 25.0°C (77°F)
Dewpoint: 16.0°C (61°F) [RH = 57%]
Pressure (altimeter): 29.94 inches Hg (1014.0 mb)
Winds: variable direction winds at 1 MPH (1 knots; 0.5 m/s)
Visibility: 6 or more miles (10+ km)
Ceiling: at least 12,000 feet AGL
Clouds: few clouds at 2500 feet AGL
Weather: no significant weather observed at this time

METAR text: RJOB 150600Z 25003KT 170V320 9999 FEW025 25/16 Q1014
Conditions at: RJOB (OKAYAMA AIRPORT , JP) observed 0600 UTC 15 October 2021
Temperature: 25.0°C (77°F)
Dewpoint: 16.0°C (61°F) [RH = 57%]
Pressure (altimeter): 29.94 inches Hg (1014.0 mb)
Winds: from the WSW (250 degrees) at 3 MPH (3 knots; 1.5 m/s)
Visibility: 6 or more miles (10+ km)
Ceiling: at least 12,000 feet AGL
Clouds: few clouds at 2500 feet AGL
Weather: no significant weather observed at this time

Forecast for: RJOB (OKAYAMA AIRPORT , JP)
Text: TAF RJOB 161705Z 1618/1800 32005KT 9999 FEW010 SCT020 BKN025
Forecast period: 1800 to 2300 UTC 16 October 2021
Forecast type: FROM: standard forecast or significant change
Winds: from the NW (320 degrees) at 6 MPH (5 knots; 2.6 m/s)
Visibility: 6 or more miles (10+ km)
Ceiling: 2500 feet AGL
Clouds: few clouds at 1000 feet AGL
scattered clouds at 2000 feet AGL
broken clouds at 2500 feet AGL
Weather: no significant weather forecast for this period
Text: BECMG 1623/1701 01012KT
Forecast period: 2300 UTC 16 October 2021 to 0000 UTC 18 October 2021
Forecast type: BECOMING: Conditions expected to become as follows by 0100 UTC 17 October 2021
Winds: from the N (10 degrees) at 14 MPH (12 knots; 6.2 m/s)
Visibility: 6 or more miles (10+ km)
Ceiling: 2500 feet AGL
Clouds: few clouds at 1000 feet AGL
scattered clouds at 2000 feet AGL
broken clouds at 2500 feet AGL
Weather: no significant weather forecast for this period